sensor_id;sensor_type;location;lat;lon;timestamp;pressure;altitude;pressure_sealevel;temperature;humidity
84232;BME280;74368;48.022;13.830;2023-12-20T00:01:03;96691.91;;;2.06;76.28
84232;BME280;74368;48.022;13.830;2023-12-20T00:03:28;96701.81;;;2.12;75.69
84232;BME280;74368;48.022;13.830;2023-12-20T00:05:54;96700.94;;;2.20;75.51
84232;BME280;74368;48.022;13.830;2023-12-20T00:08:19;96702.06;;;2.25;75.33
84232;BME280;74368;48.022;13.830;2023-12-20T00:10:44;96696.53;;;2.41;73.58
84232;BME280;74368;48.022;13.830;2023-12-20T00:13:10;96689.94;;;2.81;71.16
84232;BME280;74368;48.022;13.830;2023-12-20T00:15:36;96693.06;;;3.14;69.84
84232;BME280;74368;48.022;13.830;2023-12-20T00:18:01;96691.25;;;3.36;68.69
84232;BME280;74368;48.022;13.830;2023-12-20T00:20:27;96693.06;;;3.50;68.39
84232;BME280;74368;48.022;13.830;2023-12-20T00:22:55;96691.91;;;3.59;67.49
84232;BME280;74368;48.022;13.830;2023-12-20T00:25:21;96682.44;;;3.77;66.07
84232;BME280;74368;48.022;13.830;2023-12-20T00:27:46;96683.69;;;4.03;64.15
84232;BME280;74368;48.022;13.830;2023-12-20T00:30:12;96681.19;;;4.22;63.48
84232;BME280;74368;48.022;13.830;2023-12-20T00:32:38;96680.22;;;4.30;63.61
84232;BME280;74368;48.022;13.830;2023-12-20T00:35:03;96668.97;;;4.41;62.50
84232;BME280;74368;48.022;13.830;2023-12-20T00:37:28;96668.41;;;4.45;62.62
84232;BME280;74368;48.022;13.830;2023-12-20T00:39:54;96663.13;;;4.58;61.34
84232;BME280;74368;48.022;13.830;2023-12-20T00:42:19;96655.50;;;4.55;61.76
84232;BME280;74368;48.022;13.830;2023-12-20T00:44:44;96640.72;;;4.59;60.93
84232;BME280;74368;48.022;13.830;2023-12-20T00:47:10;96636.47;;;4.72;60.71
84232;BME280;74368;48.022;13.830;2023-12-20T00:49:35;96630.50;;;4.70;60.55
84232;BME280;74368;48.022;13.830;2023-12-20T00:52:00;96633.81;;;4.78;60.16
84232;BME280;74368;48.022;13.830;2023-12-20T00:54:26;96637.75;;;4.82;59.95
84232;BME280;74368;48.022;13.830;2023-12-20T00:56:51;96629.53;;;4.84;59.90
84232;BME280;74368;48.022;13.830;2023-12-20T00:59:16;96619.69;;;4.91;59.44
84232;BME280;74368;48.022;13.830;2023-12-20T01:01:42;96605.25;;;4.85;59.04
84232;BME280;74368;48.022;13.830;2023-12-20T01:04:07;96613.72;;;4.89;59.75
84232;BME280;74368;48.022;13.830;2023-12-20T01:06:32;96613.09;;;4.87;59.05
84232;BME280;74368;48.022;13.830;2023-12-20T01:08:58;96608.31;;;4.82;59.22
84232;BME280;74368;48.022;13.830;2023-12-20T01:11:23;96601.47;;;4.73;60.15
84232;BME280;74368;48.022;13.830;2023-12-20T01:13:48;96598.16;;;4.64;60.77
84232;BME280;74368;48.022;13.830;2023-12-20T01:16:14;96595.63;;;4.56;61.24
84232;BME280;74368;48.022;13.830;2023-12-20T01:18:39;96591.88;;;4.44;61.50
84232;BME280;74368;48.022;13.830;2023-12-20T01:21:04;96593.47;;;4.39;62.27
84232;BME280;74368;48.022;13.830;2023-12-20T01:23:30;96567.69;;;4.25;62.69
84232;BME280;74368;48.022;13.830;2023-12-20T01:25:55;96577.41;;;4.32;62.30
84232;BME280;74368;48.022;13.830;2023-12-20T01:28:21;96572.66;;;4.28;62.09
84232;BME280;74368;48.022;13.830;2023-12-20T01:30:46;96565.50;;;4.35;61.67
84232;BME280;74368;48.022;13.830;2023-12-20T01:33:12;96563.22;;;4.38;60.90
84232;BME280;74368;48.022;13.830;2023-12-20T01:35:37;96561.53;;;4.31;60.89
84232;BME280;74368;48.022;13.830;2023-12-20T01:38:02;96555.16;;;4.25;61.17
84232;BME280;74368;48.022;13.830;2023-12-20T01:40:28;96548.16;;;4.31;60.55
84232;BME280;74368;48.022;13.830;2023-12-20T01:45:25;96547.78;;;4.34;60.43
84232;BME280;74368;48.022;13.830;2023-12-20T01:47:50;96541.59;;;4.33;60.94
84232;BME280;74368;48.022;13.830;2023-12-20T01:50:16;96532.13;;;4.31;60.59
84232;BME280;74368;48.022;13.830;2023-12-20T01:52:43;96520.19;;;4.27;60.08
84232;BME280;74368;48.022;13.830;2023-12-20T01:55:09;96513.31;;;4.52;59.56
84232;BME280;74368;48.022;13.830;2023-12-20T01:57:39;96505.75;;;4.68;58.38
84232;BME280;74368;48.022;13.830;2023-12-20T02:00:06;96510.34;;;4.88;57.53
84232;BME280;74368;48.022;13.830;2023-12-20T02:02:32;96511.00;;;4.96;57.18
84232;BME280;74368;48.022;13.830;2023-12-20T02:04:58;96533.59;;;4.81;58.29
84232;BME280;74368;48.022;13.830;2023-12-20T02:07:24;96525.25;;;4.56;61.23
84232;BME280;74368;48.022;13.830;2023-12-20T02:09:50;96532.34;;;4.29;62.68
84232;BME280;74368;48.022;13.830;2023-12-20T02:12:15;96536.94;;;4.08;63.58
84232;BME280;74368;48.022;13.830;2023-12-20T02:14:40;96528.38;;;3.84;65.09
84232;BME280;74368;48.022;13.830;2023-12-20T02:17:06;96502.72;;;3.62;65.61
84232;BME280;74368;48.022;13.830;2023-12-20T02:19:31;96505.69;;;3.46;66.29
84232;BME280;74368;48.022;13.830;2023-12-20T02:22:12;96515.44;;;3.32;67.58
84232;BME280;74368;48.022;13.830;2023-12-20T02:24:38;96517.09;;;3.12;68.77
84232;BME280;74368;48.022;13.830;2023-12-20T02:27:05;96508.50;;;2.96;69.53
84232;BME280;74368;48.022;13.830;2023-12-20T02:29:32;96491.72;;;2.81;69.70
84232;BME280;74368;48.022;13.830;2023-12-20T02:31:57;96494.50;;;2.73;70.12
84232;BME280;74368;48.022;13.830;2023-12-20T02:34:23;96478.38;;;2.59;70.41
84232;BME280;74368;48.022;13.830;2023-12-20T02:36:48;96469.75;;;2.57;70.44
84232;BME280;74368;48.022;13.830;2023-12-20T02:39:14;96481.00;;;2.74;68.97
84232;BME280;74368;48.022;13.830;2023-12-20T02:41:39;96461.97;;;2.77;68.86
84232;BME280;74368;48.022;13.830;2023-12-20T02:44:04;96458.47;;;2.77;68.66
84232;BME280;74368;48.022;13.830;2023-12-20T02:46:29;96452.66;;;2.73;68.82
84232;BME280;74368;48.022;13.830;2023-12-20T02:48:55;96460.09;;;2.56;69.78
84232;BME280;74368;48.022;13.830;2023-12-20T02:51:20;96459.56;;;2.46;71.58
84232;BME280;74368;48.022;13.830;2023-12-20T02:53:45;96453.34;;;2.39;70.41
84232;BME280;74368;48.022;13.830;2023-12-20T02:56:11;96457.72;;;2.47;69.13
84232;BME280;74368;48.022;13.830;2023-12-20T02:58:36;96450.91;;;2.23;72.41
84232;BME280;74368;48.022;13.830;2023-12-20T03:01:01;96450.91;;;2.23;72.53
84232;BME280;74368;48.022;13.830;2023-12-20T03:03:27;96449.25;;;2.22;72.48
84232;BME280;74368;48.022;13.830;2023-12-20T03:05:52;96454.22;;;2.25;71.46
84232;BME280;74368;48.022;13.830;2023-12-20T03:08:17;96454.47;;;2.30;70.81
84232;BME280;74368;48.022;13.830;2023-12-20T03:10:42;96457.84;;;2.39;69.81
84232;BME280;74368;48.022;13.830;2023-12-20T03:13:08;96455.00;;;2.40;71.15
84232;BME280;74368;48.022;13.830;2023-12-20T03:15:33;96436.66;;;2.52;68.65
84232;BME280;74368;48.022;13.830;2023-12-20T03:17:58;96441.84;;;2.75;67.18
84232;BME280;74368;48.022;13.830;2023-12-20T03:20:24;96445.88;;;2.71;69.55
84232;BME280;74368;48.022;13.830;2023-12-20T03:22:51;96456.63;;;2.77;69.61
84232;BME280;74368;48.022;13.830;2023-12-20T03:25:16;96443.63;;;2.67;70.46
84232;BME280;74368;48.022;13.830;2023-12-20T03:27:41;96458.25;;;2.78;69.92
84232;BME280;74368;48.022;13.830;2023-12-20T03:30:07;96460.59;;;2.88;69.15
84232;BME280;74368;48.022;13.830;2023-12-20T03:32:33;96453.91;;;2.92;68.81
84232;BME280;74368;48.022;13.830;2023-12-20T03:34:58;96463.22;;;3.02;68.30
84232;BME280;74368;48.022;13.830;2023-12-20T03:37:23;96457.25;;;3.00;68.71
84232;BME280;74368;48.022;13.830;2023-12-20T03:39:48;96450.06;;;3.01;68.50
84232;BME280;74368;48.022;13.830;2023-12-20T03:42:14;96438.69;;;2.92;69.56
84232;BME280;74368;48.022;13.830;2023-12-20T03:44:39;96444.16;;;3.05;67.82
84232;BME280;74368;48.022;13.830;2023-12-20T03:47:05;96451.69;;;3.23;65.62
84232;BME280;74368;48.022;13.830;2023-12-20T03:49:31;96430.09;;;3.18;66.19
84232;BME280;74368;48.022;13.830;2023-12-20T03:51:56;96420.66;;;3.43;64.80
84232;BME280;74368;48.022;13.830;2023-12-20T03:54:21;96426.91;;;3.63;63.58
84232;BME280;74368;48.022;13.830;2023-12-20T03:56:46;96419.22;;;3.81;62.63
84232;BME280;74368;48.022;13.830;2023-12-20T03:59:12;96414.75;;;3.95;62.36
84232;BME280;74368;48.022;13.830;2023-12-20T04:01:37;96404.97;;;4.09;61.91
84232;BME280;74368;48.022;13.830;2023-12-20T04:04:02;96406.25;;;4.26;60.67
84232;BME280;74368;48.022;13.830;2023-12-20T04:06:28;96393.75;;;4.46;59.83
84232;BME280;74368;48.022;13.830;2023-12-20T04:08:53;96386.38;;;4.54;59.06
84232;BME280;74368;48.022;13.830;2023-12-20T04:11:18;96404.50;;;4.65;59.46
84232;BME280;74368;48.022;13.830;2023-12-20T04:13:44;96409.63;;;4.60;59.90
84232;BME280;74368;48.022;13.830;2023-12-20T04:16:09;96414.38;;;4.58;59.95
84232;BME280;74368;48.022;13.830;2023-12-20T04:18:34;96410.69;;;4.66;59.96
84232;BME280;74368;48.022;13.830;2023-12-20T04:21:00;96405.94;;;4.61;60.02
84232;BME280;74368;48.022;13.830;2023-12-20T04:23:25;96403.47;;;4.66;59.62
84232;BME280;74368;48.022;13.830;2023-12-20T04:25:50;96411.28;;;4.75;59.74
84232;BME280;74368;48.022;13.830;2023-12-20T04:28:16;96407.81;;;4.81;59.44
84232;BME280;74368;48.022;13.830;2023-12-20T04:30:42;96405.53;;;4.78;59.70
84232;BME280;74368;48.022;13.830;2023-12-20T04:33:07;96409.88;;;4.85;59.68
84232;BME280;74368;48.022;13.830;2023-12-20T04:35:32;96414.63;;;4.77;59.86
84232;BME280;74368;48.022;13.830;2023-12-20T04:37:58;96418.53;;;4.74;60.34
84232;BME280;74368;48.022;13.830;2023-12-20T04:40:23;96425.72;;;4.80;59.95
84232;BME280;74368;48.022;13.830;2023-12-20T04:42:48;96439.75;;;4.89;59.79
84232;BME280;74368;48.022;13.830;2023-12-20T04:45:14;96447.16;;;5.00;58.23
84232;BME280;74368;48.022;13.830;2023-12-20T04:47:41;96443.25;;;5.09;58.08
84232;BME280;74368;48.022;13.830;2023-12-20T04:50:07;96453.78;;;5.17;57.25
84232;BME280;74368;48.022;13.830;2023-12-20T04:52:33;96450.88;;;5.18;57.69
84232;BME280;74368;48.022;13.830;2023-12-20T04:54:58;96458.09;;;5.24;57.72
84232;BME280;74368;48.022;13.830;2023-12-20T04:57:24;96444.31;;;5.27;57.29
84232;BME280;74368;48.022;13.830;2023-12-20T04:59:50;96456.69;;;5.35;57.07
84232;BME280;74368;48.022;13.830;2023-12-20T05:02:15;96458.53;;;5.34;57.76
84232;BME280;74368;48.022;13.830;2023-12-20T05:04:40;96470.88;;;5.42;56.83
84232;BME280;74368;48.022;13.830;2023-12-20T05:07:06;96474.78;;;5.53;57.63
84232;BME280;74368;48.022;13.830;2023-12-20T05:09:32;96475.59;;;5.53;57.73
84232;BME280;74368;48.022;13.830;2023-12-20T05:11:57;96491.69;;;5.53;58.23
84232;BME280;74368;48.022;13.830;2023-12-20T05:14:22;96488.81;;;5.55;57.41
84232;BME280;74368;48.022;13.830;2023-12-20T05:16:47;96485.91;;;5.63;57.06
84232;BME280;74368;48.022;13.830;2023-12-20T05:19:13;96508.19;;;5.63;57.20
84232;BME280;74368;48.022;13.830;2023-12-20T05:21:39;96495.19;;;5.60;57.08
84232;BME280;74368;48.022;13.830;2023-12-20T05:24:04;96511.69;;;5.64;57.18
84232;BME280;74368;48.022;13.830;2023-12-20T05:26:30;96519.09;;;5.68;56.90
84232;BME280;74368;48.022;13.830;2023-12-20T05:28:55;96522.63;;;5.69;57.28
84232;BME280;74368;48.022;13.830;2023-12-20T05:31:21;96501.97;;;5.63;57.06
84232;BME280;74368;48.022;13.830;2023-12-20T05:33:46;96514.34;;;5.70;57.20
84232;BME280;74368;48.022;13.830;2023-12-20T05:36:11;96501.34;;;5.67;56.39
84232;BME280;74368;48.022;13.830;2023-12-20T05:38:38;96526.94;;;5.76;57.34
84232;BME280;74368;48.022;13.830;2023-12-20T05:41:04;96531.25;;;5.77;57.02
84232;BME280;74368;48.022;13.830;2023-12-20T05:43:29;96533.75;;;5.79;57.12
84232;BME280;74368;48.022;13.830;2023-12-20T05:45:54;96530.88;;;5.87;57.17
84232;BME280;74368;48.022;13.830;2023-12-20T05:48:20;96532.50;;;5.94;58.45
84232;BME280;74368;48.022;13.830;2023-12-20T05:50:45;96523.66;;;6.01;58.63
84232;BME280;74368;48.022;13.830;2023-12-20T05:53:10;96521.16;;;6.06;58.76
84232;BME280;74368;48.022;13.830;2023-12-20T05:55:36;96516.44;;;6.01;59.13
84232;BME280;74368;48.022;13.830;2023-12-20T05:58:01;96513.13;;;5.99;59.80
84232;BME280;74368;48.022;13.830;2023-12-20T06:00:26;96507.34;;;5.89;61.26
84232;BME280;74368;48.022;13.830;2023-12-20T06:02:51;96510.03;;;5.89;61.04
84232;BME280;74368;48.022;13.830;2023-12-20T06:05:17;96501.56;;;5.92;60.08
84232;BME280;74368;48.022;13.830;2023-12-20T06:07:42;96501.81;;;5.90;60.04
84232;BME280;74368;48.022;13.830;2023-12-20T06:10:07;96506.31;;;5.96;60.34
84232;BME280;74368;48.022;13.830;2023-12-20T06:12:33;96529.41;;;5.84;61.25
84232;BME280;74368;48.022;13.830;2023-12-20T06:15:00;96524.06;;;5.84;61.25
84232;BME280;74368;48.022;13.830;2023-12-20T06:17:26;96541.81;;;5.98;59.93
84232;BME280;74368;48.022;13.830;2023-12-20T06:19:51;96544.47;;;5.92;60.05
84232;BME280;74368;48.022;13.830;2023-12-20T06:22:16;96532.31;;;6.03;59.52
84232;BME280;74368;48.022;13.830;2023-12-20T06:24:42;96544.03;;;6.02;59.80
84232;BME280;74368;48.022;13.830;2023-12-20T06:27:07;96544.06;;;5.95;60.27
84232;BME280;74368;48.022;13.830;2023-12-20T06:29:32;96548.63;;;6.01;60.66
84232;BME280;74368;48.022;13.830;2023-12-20T06:31:59;96548.19;;;5.97;60.20
84232;BME280;74368;48.022;13.830;2023-12-20T06:34:25;96547.34;;;5.97;61.05
84232;BME280;74368;48.022;13.830;2023-12-20T06:36:50;96570.03;;;6.08;60.63
84232;BME280;74368;48.022;13.830;2023-12-20T06:39:15;96571.69;;;6.02;61.74
84232;BME280;74368;48.022;13.830;2023-12-20T06:41:41;96572.53;;;6.03;61.82
84232;BME280;74368;48.022;13.830;2023-12-20T06:44:07;96570.88;;;5.95;62.54
84232;BME280;74368;48.022;13.830;2023-12-20T06:46:33;96575.63;;;5.93;62.51
84232;BME280;74368;48.022;13.830;2023-12-20T06:48:58;96579.34;;;5.85;63.20
84232;BME280;74368;48.022;13.830;2023-12-20T06:51:23;96572.97;;;5.86;63.58
84232;BME280;74368;48.022;13.830;2023-12-20T06:53:53;96586.97;;;5.88;63.50
84232;BME280;74368;48.022;13.830;2023-12-20T06:56:18;96590.84;;;5.79;64.39
84232;BME280;74368;48.022;13.830;2023-12-20T06:58:44;96595.97;;;5.74;65.06
84232;BME280;74368;48.022;13.830;2023-12-20T07:01:14;96593.13;;;5.69;64.97
84232;BME280;74368;48.022;13.830;2023-12-20T07:03:40;96601.16;;;5.69;64.75
84232;BME280;74368;48.022;13.830;2023-12-20T07:06:06;96595.97;;;5.68;65.20
84232;BME280;74368;48.022;13.830;2023-12-20T07:08:31;96594.75;;;5.64;65.89
84232;BME280;74368;48.022;13.830;2023-12-20T07:10:56;96595.78;;;5.63;67.09
84232;BME280;74368;48.022;13.830;2023-12-20T07:13:22;96595.97;;;5.68;66.76
84232;BME280;74368;48.022;13.830;2023-12-20T07:15:48;96624.41;;;5.62;68.15
84232;BME280;74368;48.022;13.830;2023-12-20T07:18:13;96615.94;;;5.39;69.65
84232;BME280;74368;48.022;13.830;2023-12-20T07:20:39;96626.41;;;5.34;70.90
84232;BME280;74368;48.022;13.830;2023-12-20T07:23:04;96626.59;;;5.26;71.58
84232;BME280;74368;48.022;13.830;2023-12-20T07:25:29;96637.06;;;5.14;73.35
84232;BME280;74368;48.022;13.830;2023-12-20T07:28:00;96639.56;;;5.16;73.96
84232;BME280;74368;48.022;13.830;2023-12-20T07:30:25;96645.88;;;5.02;75.58
84232;BME280;74368;48.022;13.830;2023-12-20T07:32:51;96644.78;;;4.90;76.73
84232;BME280;74368;48.022;13.830;2023-12-20T07:35:17;96649.34;;;4.96;76.99
84232;BME280;74368;48.022;13.830;2023-12-20T07:37:43;96654.47;;;4.91;77.10
84232;BME280;74368;48.022;13.830;2023-12-20T07:40:08;96643.69;;;4.78;78.21
84232;BME280;74368;48.022;13.830;2023-12-20T07:42:33;96667.19;;;4.82;79.64
84232;BME280;74368;48.022;13.830;2023-12-20T07:44:59;96662.41;;;4.71;80.52
84232;BME280;74368;48.022;13.830;2023-12-20T07:47:24;96666.50;;;4.67;80.97
84232;BME280;74368;48.022;13.830;2023-12-20T07:49:51;96668.94;;;4.62;81.65
84232;BME280;74368;48.022;13.830;2023-12-20T07:52:19;96669.13;;;4.60;82.14
84232;BME280;74368;48.022;13.830;2023-12-20T07:54:45;96678.19;;;4.59;82.20
84232;BME280;74368;48.022;13.830;2023-12-20T07:57:11;96679.53;;;4.49;83.29
84232;BME280;74368;48.022;13.830;2023-12-20T07:59:37;96694.81;;;4.55;83.09
84232;BME280;74368;48.022;13.830;2023-12-20T08:02:02;96691.69;;;4.51;83.75
84232;BME280;74368;48.022;13.830;2023-12-20T08:04:27;96696.38;;;4.43;84.52
84232;BME280;74368;48.022;13.830;2023-12-20T08:06:53;96706.28;;;4.49;84.36
84232;BME280;74368;48.022;13.830;2023-12-20T08:09:18;96693.06;;;4.41;84.44
84232;BME280;74368;48.022;13.830;2023-12-20T08:11:45;96705.41;;;4.42;85.27
84232;BME280;74368;48.022;13.830;2023-12-20T08:14:11;96704.34;;;4.36;85.94
84232;BME280;74368;48.022;13.830;2023-12-20T08:16:36;96709.06;;;4.34;86.28
84232;BME280;74368;48.022;13.830;2023-12-20T08:19:01;96711.09;;;4.32;86.37
84232;BME280;74368;48.022;13.830;2023-12-20T08:21:27;96695.47;;;4.36;86.16
84232;BME280;74368;48.022;13.830;2023-12-20T08:23:52;96701.25;;;4.33;86.80
84232;BME280;74368;48.022;13.830;2023-12-20T08:26:21;96700.59;;;4.31;86.71
84232;BME280;74368;48.022;13.830;2023-12-20T08:28:49;96708.22;;;4.34;86.89
84232;BME280;74368;48.022;13.830;2023-12-20T08:31:15;96694.03;;;4.33;86.97
84232;BME280;74368;48.022;13.830;2023-12-20T08:33:43;96695.44;;;4.29;86.62
84232;BME280;74368;48.022;13.830;2023-12-20T08:36:08;96701.63;;;4.30;86.08
84232;BME280;74368;48.022;13.830;2023-12-20T08:38:34;96704.97;;;4.38;85.63
84232;BME280;74368;48.022;13.830;2023-12-20T08:40:59;96705.72;;;4.26;86.04
84232;BME280;74368;48.022;13.830;2023-12-20T08:43:24;96713.41;;;4.35;85.46
84232;BME280;74368;48.022;13.830;2023-12-20T08:45:50;96699.53;;;4.25;86.21
84232;BME280;74368;48.022;13.830;2023-12-20T08:48:15;96710.91;;;4.34;86.27
84232;BME280;74368;48.022;13.830;2023-12-20T08:50:40;96712.19;;;4.38;85.60
84232;BME280;74368;48.022;13.830;2023-12-20T08:53:06;96697.69;;;4.26;86.55
84232;BME280;74368;48.022;13.830;2023-12-20T08:55:34;96697.91;;;4.31;86.46
84232;BME280;74368;48.022;13.830;2023-12-20T08:57:59;96690.94;;;4.30;86.21
84232;BME280;74368;48.022;13.830;2023-12-20T09:00:25;96706.75;;;4.31;86.92
84232;BME280;74368;48.022;13.830;2023-12-20T09:02:53;96707.84;;;4.37;86.50
84232;BME280;74368;48.022;13.830;2023-12-20T09:05:18;96710.13;;;4.40;86.02
84232;BME280;74368;48.022;13.830;2023-12-20T09:07:43;96713.22;;;4.43;86.56
84232;BME280;74368;48.022;13.830;2023-12-20T09:10:09;96707.88;;;4.43;86.81
84232;BME280;74368;48.022;13.830;2023-12-20T09:12:34;96717.13;;;4.41;86.70
84232;BME280;74368;48.022;13.830;2023-12-20T09:14:59;96701.72;;;4.43;86.52
84232;BME280;74368;48.022;13.830;2023-12-20T09:17:27;96717.78;;;4.43;87.44
84232;BME280;74368;48.022;13.830;2023-12-20T09:19:52;96719.41;;;4.44;86.71
84232;BME280;74368;48.022;13.830;2023-12-20T09:22:19;96713.94;;;4.52;87.00
84232;BME280;74368;48.022;13.830;2023-12-20T09:24:44;96706.75;;;4.52;87.40
84232;BME280;74368;48.022;13.830;2023-12-20T09:27:10;96714.56;;;4.54;87.42
84232;BME280;74368;48.022;13.830;2023-12-20T09:29:35;96710.53;;;4.64;86.84
84232;BME280;74368;48.022;13.830;2023-12-20T09:32:01;96719.94;;;4.60;86.95
84232;BME280;74368;48.022;13.830;2023-12-20T09:34:26;96712.50;;;4.56;87.35
84232;BME280;74368;48.022;13.830;2023-12-20T09:36:52;96721.59;;;4.61;87.04
84232;BME280;74368;48.022;13.830;2023-12-20T09:39:18;96717.09;;;4.62;86.78
84232;BME280;74368;48.022;13.830;2023-12-20T09:42:03;96710.31;;;4.66;86.98
84232;BME280;74368;48.022;13.830;2023-12-20T09:44:29;96710.06;;;4.61;86.43
84232;BME280;74368;48.022;13.830;2023-12-20T09:46:56;96705.19;;;4.64;85.99
84232;BME280;74368;48.022;13.830;2023-12-20T09:49:22;96705.59;;;4.68;85.77
84232;BME280;74368;48.022;13.830;2023-12-20T09:51:50;96697.31;;;4.63;86.38
84232;BME280;74368;48.022;13.830;2023-12-20T09:54:17;96700.06;;;4.70;85.74
84232;BME280;74368;48.022;13.830;2023-12-20T09:56:43;96697.41;;;4.70;85.53
84232;BME280;74368;48.022;13.830;2023-12-20T09:59:09;96689.13;;;4.64;85.10
84232;BME280;74368;48.022;13.830;2023-12-20T10:01:35;96685.03;;;4.68;85.32
84232;BME280;74368;48.022;13.830;2023-12-20T10:04:05;96677.97;;;4.61;85.37
84232;BME280;74368;48.022;13.830;2023-12-20T10:06:36;96690.38;;;4.68;85.05
84232;BME280;74368;48.022;13.830;2023-12-20T10:09:02;96677.00;;;4.68;85.63
84232;BME280;74368;48.022;13.830;2023-12-20T10:11:27;96677.00;;;4.68;85.72
84232;BME280;74368;48.022;13.830;2023-12-20T10:13:59;96676.38;;;4.66;85.91
84232;BME280;74368;48.022;13.830;2023-12-20T10:16:26;96665.59;;;4.60;86.73
84232;BME280;74368;48.022;13.830;2023-12-20T10:18:55;96658.50;;;4.74;85.74
84232;BME280;74368;48.022;13.830;2023-12-20T10:21:21;96668.38;;;4.73;86.28
84232;BME280;74368;48.022;13.830;2023-12-20T10:23:47;96670.44;;;4.71;85.99
84232;BME280;74368;48.022;13.830;2023-12-20T10:26:19;96659.97;;;4.76;85.16
84232;BME280;74368;48.022;13.830;2023-12-20T10:28:45;96666.56;;;4.80;85.13
84232;BME280;74368;48.022;13.830;2023-12-20T10:31:25;96659.59;;;4.86;84.60
84232;BME280;74368;48.022;13.830;2023-12-20T10:33:51;96655.47;;;4.83;85.16
84232;BME280;74368;48.022;13.830;2023-12-20T10:36:16;96660.00;;;4.83;85.00
84232;BME280;74368;48.022;13.830;2023-12-20T10:38:42;96648.44;;;4.82;86.32
84232;BME280;74368;48.022;13.830;2023-12-20T10:41:08;96648.91;;;4.86;85.89
84232;BME280;74368;48.022;13.830;2023-12-20T10:43:35;96643.34;;;4.87;84.70
84232;BME280;74368;48.022;13.830;2023-12-20T10:46:03;96639.63;;;4.82;85.48
84232;BME280;74368;48.022;13.830;2023-12-20T10:48:30;96635.91;;;4.89;84.24
84232;BME280;74368;48.022;13.830;2023-12-20T10:50:57;96639.25;;;4.91;84.87
84232;BME280;74368;48.022;13.830;2023-12-20T10:53:24;96636.38;;;4.93;83.93
84232;BME280;74368;48.022;13.830;2023-12-20T10:55:52;96635.16;;;4.95;84.23
84232;BME280;74368;48.022;13.830;2023-12-20T10:58:20;96639.06;;;4.99;83.90
84232;BME280;74368;48.022;13.830;2023-12-20T11:00:46;96632.00;;;5.32;84.83
84232;BME280;74368;48.022;13.830;2023-12-20T11:03:12;96639.59;;;5.29;83.32
84232;BME280;74368;48.022;13.830;2023-12-20T11:05:49;96630.50;;;5.17;84.02
84232;BME280;74368;48.022;13.830;2023-12-20T11:10:55;96646.53;;;5.10;84.67
84232;BME280;74368;48.022;13.830;2023-12-20T11:13:36;96627.97;;;5.09;85.42
84232;BME280;74368;48.022;13.830;2023-12-20T11:16:03;96625.69;;;4.99;85.65
84232;BME280;74368;48.022;13.830;2023-12-20T11:18:29;96625.44;;;4.94;85.76
84232;BME280;74368;48.022;13.830;2023-12-20T11:20:55;96627.97;;;5.02;86.25
84232;BME280;74368;48.022;13.830;2023-12-20T11:23:25;96624.81;;;4.92;86.59
84232;BME280;74368;48.022;13.830;2023-12-20T11:25:55;96635.97;;;4.96;86.13
84232;BME280;74368;48.022;13.830;2023-12-20T11:28:24;96620.09;;;4.94;86.47
84232;BME280;74368;48.022;13.830;2023-12-20T11:30:55;96622.75;;;4.88;86.54
84232;BME280;74368;48.022;13.830;2023-12-20T11:33:45;96622.16;;;4.92;85.82
84232;BME280;74368;48.022;13.830;2023-12-20T11:36:14;96621.31;;;4.92;85.94
84232;BME280;74368;48.022;13.830;2023-12-20T11:38:57;96614.94;;;4.93;85.33
84232;BME280;74368;48.022;13.830;2023-12-20T11:41:26;96617.66;;;4.99;85.36
84232;BME280;74368;48.022;13.830;2023-12-20T11:43:55;96623.44;;;4.96;85.31
84232;BME280;74368;48.022;13.830;2023-12-20T11:46:21;96625.22;;;4.89;85.03
84232;BME280;74368;48.022;13.830;2023-12-20T11:48:47;96625.81;;;4.85;85.60
84232;BME280;74368;48.022;13.830;2023-12-20T11:51:13;96623.13;;;4.85;85.66
84232;BME280;74368;48.022;13.830;2023-12-20T11:53:40;96619.25;;;4.87;84.74
84232;BME280;74368;48.022;13.830;2023-12-20T11:56:06;96622.09;;;4.79;86.18
84232;BME280;74368;48.022;13.830;2023-12-20T11:58:32;96620.22;;;4.73;86.26
84232;BME280;74368;48.022;13.830;2023-12-20T12:00:57;96630.91;;;4.73;86.60
84232;BME280;74368;48.022;13.830;2023-12-20T12:03:23;96608.88;;;4.71;86.86
84232;BME280;74368;48.022;13.830;2023-12-20T12:05:49;96619.00;;;4.76;86.64
84232;BME280;74368;48.022;13.830;2023-12-20T12:08:14;96625.19;;;4.83;85.92
84232;BME280;74368;48.022;13.830;2023-12-20T12:10:40;96619.44;;;4.79;86.24
84232;BME280;74368;48.022;13.830;2023-12-20T12:13:05;96621.66;;;4.76;85.97
84232;BME280;74368;48.022;13.830;2023-12-20T12:15:31;96620.22;;;4.80;86.52
84232;BME280;74368;48.022;13.830;2023-12-20T12:17:57;96619.59;;;4.71;86.79
84232;BME280;74368;48.022;13.830;2023-12-20T12:20:23;96615.06;;;4.72;87.29
84232;BME280;74368;48.022;13.830;2023-12-20T12:22:59;96613.16;;;4.65;87.42
84232;BME280;74368;48.022;13.830;2023-12-20T12:25:25;96618.56;;;4.72;87.57
84232;BME280;74368;48.022;13.830;2023-12-20T12:27:51;96622.88;;;4.73;87.13
84232;BME280;74368;48.022;13.830;2023-12-20T12:30:16;96606.59;;;4.68;87.88
84232;BME280;74368;48.022;13.830;2023-12-20T12:32:44;96602.72;;;4.71;87.78
84232;BME280;74368;48.022;13.830;2023-12-20T12:35:09;96598.97;;;4.65;87.80
84232;BME280;74368;48.022;13.830;2023-12-20T12:37:37;96600.00;;;4.64;88.29
84232;BME280;74368;48.022;13.830;2023-12-20T12:40:14;96599.16;;;4.63;87.79
84232;BME280;74368;48.022;13.830;2023-12-20T12:42:41;96592.38;;;4.67;88.14
84232;BME280;74368;48.022;13.830;2023-12-20T12:45:07;96590.78;;;4.73;88.33
84232;BME280;74368;48.022;13.830;2023-12-20T12:47:33;96587.25;;;4.66;88.06
84232;BME280;74368;48.022;13.830;2023-12-20T12:49:59;96592.59;;;4.66;87.58
84232;BME280;74368;48.022;13.830;2023-12-20T12:52:24;96587.81;;;4.55;87.85
84232;BME280;74368;48.022;13.830;2023-12-20T12:54:51;96589.66;;;4.54;88.49
84232;BME280;74368;48.022;13.830;2023-12-20T12:57:17;96565.16;;;4.51;88.56
84232;BME280;74368;48.022;13.830;2023-12-20T12:59:43;96580.22;;;4.58;88.57